Time;durP1;ratioP1;P1;durP2;ratioP2;P2;SDS_P1;SDS_P2;PMS_P1;PMS_P2;Temp;Humidity;BMP_temperature;BMP_pressure;BME280_temperature;BME280_humidity;BME280_pressure;Samples;Min_cycle;Max_cycle;Signal;HPM_P1;HPM_P2
2023/11/14 00:00:19;;;;;;;37.33;4.43;;;13.40;99.90;;;;;;5026102;28;20029;-54
2023/11/14 00:02:45;;;;;;;29.65;4.68;;;13.40;99.90;;;;;;5026218;28;20029;-54
2023/11/14 00:05:12;;;;;;;34.72;3.95;;;13.40;99.90;;;;;;5025694;28;20458;-52
2023/11/14 00:07:37;;;;;;;35.03;3.97;;;13.50;99.90;;;;;;5025820;28;20022;-56
2023/11/14 00:10:04;;;;;;;31.10;4.10;;;13.40;99.90;;;;;;5025677;28;20030;-56
2023/11/14 00:12:30;;;;;;;32.83;3.63;;;13.40;99.90;;;;;;5025982;28;20481;-56
2023/11/14 00:14:55;;;;;;;31.27;5.43;;;13.40;99.90;;;;;;5033072;28;20060;-55
2023/11/14 00:17:21;;;;;;;25.98;3.72;;;13.40;99.90;;;;;;5033592;28;20402;-55
2023/11/14 00:19:47;;;;;;;28.33;4.75;;;13.50;99.90;;;;;;5032430;28;20523;-56
2023/11/14 00:22:12;;;;;;;26.70;3.30;;;13.40;99.90;;;;;;5032727;28;20469;-53
2023/11/14 00:24:38;;;;;;;32.97;4.70;;;13.40;99.90;;;;;;5033192;28;20029;-55
2023/11/14 00:27:04;;;;;;;31.63;3.75;;;13.40;99.90;;;;;;5032700;28;20036;-55
2023/11/14 00:29:30;;;;;;;24.00;4.95;;;13.40;99.90;;;;;;5032923;28;20432;-52
2023/11/14 00:31:56;;;;;;;30.20;4.03;;;13.40;99.90;;;;;;5032626;28;20040;-53
2023/11/14 00:34:22;;;;;;;32.90;4.53;;;13.40;99.90;;;;;;5032697;28;20021;-57
2023/11/14 00:36:49;;;;;;;19.98;2.67;;;13.40;99.90;;;;;;5030765;28;20544;-55
2023/11/14 00:39:16;;;;;;;32.65;4.75;;;13.50;99.90;;;;;;5032457;28;20046;-55
2023/11/14 00:41:47;;;;;;;27.98;3.47;;;13.50;99.90;;;;;;5032811;28;20470;-54
2023/11/14 00:44:13;;;;;;;22.75;4.00;;;13.50;99.90;;;;;;5032835;28;20538;-55
2023/11/14 00:46:39;;;;;;;32.72;5.35;;;13.60;99.90;;;;;;5032834;28;20548;-55
2023/11/14 00:49:05;;;;;;;34.47;5.40;;;13.50;99.90;;;;;;5032635;28;20029;-53
2023/11/14 00:51:30;;;;;;;25.77;4.15;;;13.50;99.90;;;;;;5032594;28;20371;-53
2023/11/14 00:53:56;;;;;;;23.77;3.30;;;13.50;99.90;;;;;;5032597;28;20025;-56
2023/11/14 00:56:22;;;;;;;28.30;5.20;;;13.40;99.90;;;;;;5032942;28;20037;-54
2023/11/14 00:58:48;;;;;;;21.25;3.42;;;13.30;99.90;;;;;;5030921;28;20026;-53
2023/11/14 01:01:14;;;;;;;26.55;4.18;;;13.40;99.90;;;;;;5032363;28;20075;-54
2023/11/14 01:03:39;;;;;;;25.40;4.20;;;13.40;99.90;;;;;;5032584;28;20025;-55
2023/11/14 01:06:05;;;;;;;19.75;3.42;;;13.40;99.90;;;;;;5032656;28;20485;-54
2023/11/14 01:08:31;;;;;;;39.10;5.18;;;13.40;99.90;;;;;;5031798;28;20026;-52
2023/11/14 01:10:57;;;;;;;25.52;3.97;;;13.40;99.90;;;;;;5032134;28;20025;-52
2023/11/14 01:13:23;;;;;;;30.90;4.28;;;13.40;99.90;;;;;;5032735;28;20025;-54
2023/11/14 01:15:49;;;;;;;22.83;4.85;;;13.50;99.90;;;;;;5032119;28;20501;-56
2023/11/14 01:18:15;;;;;;;30.80;4.90;;;13.40;99.90;;;;;;5031867;28;20026;-55
2023/11/14 01:20:41;;;;;;;21.25;3.92;;;13.40;99.90;;;;;;5032295;28;20037;-54
2023/11/14 01:23:07;;;;;;;22.42;4.95;;;13.40;99.90;;;;;;5032381;28;20029;-57
2023/11/14 01:25:33;;;;;;;19.42;3.10;;;13.40;99.90;;;;;;5032303;28;20482;-55
2023/11/14 01:27:58;;;;;;;20.63;4.13;;;13.40;99.90;;;;;;5031797;28;20033;-53
2023/11/14 01:30:24;;;;;;;19.85;3.38;;;13.40;99.90;;;;;;5032193;28;20446;-54
2023/11/14 01:32:50;;;;;;;20.20;4.45;;;13.40;99.90;;;;;;5031576;28;20030;-54
2023/11/14 01:35:15;;;;;;;34.35;4.28;;;13.30;99.90;;;;;;5032632;28;20026;-54
2023/11/14 01:37:41;;;;;;;21.23;3.75;;;13.40;99.90;;;;;;5031912;28;20029;-54
2023/11/14 01:40:08;;;;;;;26.98;3.50;;;13.40;99.90;;;;;;5034372;28;20399;-56
2023/11/14 01:42:33;;;;;;;30.77;3.63;;;13.30;99.90;;;;;;5036211;28;20478;-54
2023/11/14 01:44:59;;;;;;;25.80;3.95;;;13.40;99.90;;;;;;5036012;28;20040;-55
2023/11/14 01:47:25;;;;;;;21.02;4.05;;;13.40;99.90;;;;;;5035755;28;20022;-55
2023/11/14 01:49:52;;;;;;;19.52;3.35;;;13.50;99.90;;;;;;5034510;28;20370;-55
2023/11/14 01:52:18;;;;;;;31.98;3.47;;;13.40;99.90;;;;;;5034939;28;20482;-54
2023/11/14 01:54:44;;;;;;;28.15;3.83;;;13.50;99.90;;;;;;5035725;28;20482;-53
2023/11/14 01:57:12;;;;;;;17.52;3.13;;;13.40;99.90;;;;;;5035622;28;20033;-53
2023/11/14 01:59:44;;;;;;;27.15;3.22;;;13.50;99.90;;;;;;5035250;28;20040;-56
2023/11/14 02:02:12;;;;;;;33.08;3.53;;;13.40;99.90;;;;;;5035261;28;20492;-54
2023/11/14 02:04:38;;;;;;;21.13;3.78;;;13.40;99.90;;;;;;5035110;28;20048;-53
2023/11/14 02:07:04;;;;;;;26.13;4.13;;;13.40;99.90;;;;;;5034440;28;20089;-41
2023/11/14 02:09:29;;;;;;;35.83;3.92;;;13.40;99.90;;;;;;5035336;28;20136;-39
2023/11/14 02:11:55;;;;;;;30.05;3.30;;;13.30;99.90;;;;;;5034393;28;20061;-57
2023/11/14 02:14:22;;;;;;;25.13;3.80;;;13.30;99.90;;;;;;5034836;28;20553;-40
2023/11/14 02:16:55;;;;;;;26.20;4.57;;;13.30;99.90;;;;;;5034908;28;20092;-40
2023/11/14 02:19:21;;;;;;;28.30;3.55;;;13.30;99.90;;;;;;5035260;28;20025;-45
2023/11/14 02:21:48;;;;;;;21.73;3.10;;;13.40;99.90;;;;;;5035261;28;20025;-42
2023/11/14 02:24:18;;;;;;;27.08;3.95;;;13.30;99.90;;;;;;5035240;28;20021;-39
2023/11/14 02:26:48;;;;;;;23.23;3.40;;;13.30;99.90;;;;;;5035134;28;20113;-44
2023/11/14 02:29:21;;;;;;;33.08;4.38;;;13.30;99.90;;;;;;5034886;28;20034;-40
2023/11/14 02:31:49;;;;;;;20.98;2.63;;;13.30;99.90;;;;;;5034856;28;20052;-41
2023/11/14 02:34:15;;;;;;;24.88;3.38;;;13.30;99.90;;;;;;5034922;28;20028;-43
2023/11/14 02:36:40;;;;;;;23.15;3.15;;;13.30;99.90;;;;;;5035079;28;20108;-39
2023/11/14 02:39:10;;;;;;;29.40;4.40;;;13.30;99.90;;;;;;5034513;28;20142;-41
2023/11/14 02:41:36;;;;;;;24.20;3.70;;;13.30;99.90;;;;;;5035261;28;20025;-43
2023/11/14 02:44:02;;;;;;;18.95;2.55;;;13.30;99.90;;;;;;5034864;28;20124;-44
2023/11/14 02:46:28;;;;;;;32.88;4.40;;;13.30;99.90;;;;;;5034352;28;20021;-57
2023/11/14 02:48:53;;;;;;;34.15;3.67;;;13.30;99.90;;;;;;5034056;28;20478;-53
2023/11/14 02:51:19;;;;;;;21.02;3.08;;;13.30;99.90;;;;;;5033725;28;20029;-54
2023/11/14 02:53:46;;;;;;;33.72;3.65;;;13.20;99.90;;;;;;5033422;28;20482;-55
2023/11/14 02:56:12;;;;;;;28.53;3.17;;;13.30;99.90;;;;;;5047643;28;20465;-55
2023/11/14 02:58:38;;;;;;;15.73;3.78;;;13.20;99.90;;;;;;5045649;28;20061;-54
2023/11/14 03:01:04;;;;;;;26.58;3.42;;;13.20;99.90;;;;;;5034256;28;20030;-53
2023/11/14 03:03:30;;;;;;;24.63;4.35;;;13.30;99.90;;;;;;5034374;28;20056;-55
2023/11/14 03:05:59;;;;;;;23.23;3.75;;;13.30;99.90;;;;;;5033742;28;20025;-53
2023/11/14 03:08:25;;;;;;;27.38;4.32;;;13.30;99.90;;;;;;5034054;28;20532;-55
2023/11/14 03:10:51;;;;;;;25.45;3.83;;;13.20;99.90;;;;;;5033992;28;20041;-56
2023/11/14 03:13:18;;;;;;;16.98;3.88;;;13.20;99.90;;;;;;5034319;28;20033;-56
2023/11/14 03:15:43;;;;;;;19.95;4.18;;;13.30;99.90;;;;;;5034514;28;20470;-55
2023/11/14 03:18:09;;;;;;;30.02;3.63;;;13.30;99.90;;;;;;5034262;28;20086;-60
2023/11/14 03:20:35;;;;;;;18.30;3.15;;;13.30;99.90;;;;;;5034265;28;20433;-55
2023/11/14 03:23:01;;;;;;;20.05;3.67;;;13.30;99.90;;;;;;5034054;28;20025;-54
2023/11/14 03:25:27;;;;;;;22.52;3.55;;;13.30;99.90;;;;;;5034063;28;20134;-57
2023/11/14 03:27:52;;;;;;;26.92;4.28;;;13.30;99.90;;;;;;5034342;28;20063;-54
2023/11/14 03:30:22;;;;;;;27.60;4.95;;;13.30;99.90;;;;;;5034065;28;20482;-53
2023/11/14 03:32:48;;;;;;;31.08;4.07;;;13.30;99.90;;;;;;5034039;28;20022;-56
2023/11/14 03:35:13;;;;;;;21.23;3.92;;;13.30;99.90;;;;;;5031838;28;20048;-55
2023/11/14 03:37:39;;;;;;;29.10;4.65;;;13.30;99.90;;;;;;5029080;28;20478;-55
2023/11/14 03:40:05;;;;;;;32.90;3.75;;;13.30;99.90;;;;;;5033489;28;20082;-56
2023/11/14 03:42:33;;;;;;;25.42;4.88;;;13.20;99.90;;;;;;5033374;28;20032;-55
2023/11/14 03:44:59;;;;;;;31.38;3.90;;;13.20;99.90;;;;;;5031664;28;20026;-56
2023/11/14 03:47:25;;;;;;;18.90;3.60;;;13.20;99.90;;;;;;5033298;28;20060;-54
2023/11/14 03:49:50;;;;;;;21.50;3.55;;;13.10;99.90;;;;;;5033356;28;20048;-55
2023/11/14 03:52:16;;;;;;;35.35;3.95;;;13.20;99.90;;;;;;5033071;28;20029;-55
2023/11/14 03:54:42;;;;;;;23.58;4.03;;;13.20;99.90;;;;;;5033517;28;20032;-57
2023/11/14 03:57:07;;;;;;;19.88;2.78;;;13.30;99.90;;;;;;5033860;28;20036;-57
2023/11/14 03:59:33;;;;;;;37.53;4.57;;;13.30;99.90;;;;;;5032738;28;20525;-55
2023/11/14 04:01:58;;;;;;;24.65;3.55;;;13.30;99.90;;;;;;5032747;28;20037;-54
2023/11/14 04:04:24;;;;;;;27.48;4.53;;;13.30;99.90;;;;;;5033035;28;20029;-55
2023/11/14 04:06:50;;;;;;;20.15;4.18;;;13.20;99.90;;;;;;5033414;28;20485;-55
2023/11/14 04:09:15;;;;;;;29.27;3.08;;;13.10;99.90;;;;;;5033660;28;20106;-56
2023/11/14 04:11:48;;;;;;;20.08;3.40;;;13.10;99.90;;;;;;5033363;28;20044;-53
2023/11/14 04:14:14;;;;;;;19.60;2.88;;;13.10;99.90;;;;;;5033283;28;20413;-57
2023/11/14 04:16:40;;;;;;;29.33;5.13;;;13.10;99.90;;;;;;5032713;28;20026;-56
2023/11/14 04:19:05;;;;;;;35.30;4.70;;;13.00;99.90;;;;;;5033120;28;20052;-55
2023/11/14 04:21:31;;;;;;;20.13;2.72;;;13.00;99.90;;;;;;5033156;28;20080;-53
2023/11/14 04:23:57;;;;;;;35.60;3.38;;;12.90;99.90;;;;;;5033161;28;20025;-57
2023/11/14 04:26:22;;;;;;;22.42;2.78;;;13.00;99.90;;;;;;5032811;28;20543;-54
2023/11/14 04:28:49;;;;;;;26.63;3.75;;;13.00;99.90;;;;;;5033060;28;20489;-53
2023/11/14 04:31:16;;;;;;;13.65;4.05;;;13.00;99.90;;;;;;5033021;28;20029;-55
2023/11/14 04:33:42;;;;;;;14.77;3.17;;;13.10;99.90;;;;;;5032189;28;20474;-55
2023/11/14 04:36:08;;;;;;;22.30;4.45;;;13.10;99.90;;;;;;5032796;28;20474;-57
2023/11/14 04:38:34;;;;;;;29.13;4.45;;;13.10;99.90;;;;;;5032896;28;20025;-56
2023/11/14 04:41:00;;;;;;;28.50;3.67;;;13.10;99.90;;;;;;5032711;28;20502;-58
2023/11/14 04:43:25;;;;;;;15.20;2.42;;;13.10;99.90;;;;;;5032484;28;20036;-54
2023/11/14 04:45:51;;;;;;;25.70;3.67;;;13.20;99.90;;;;;;5032819;28;20028;-54
2023/11/14 04:48:17;;;;;;;31.08;3.95;;;13.20;99.90;;;;;;5032647;28;20030;-54
2023/11/14 04:50:43;;;;;;;30.17;4.63;;;13.10;99.90;;;;;;5032620;28;20071;-40
2023/11/14 04:53:09;;;;;;;24.23;3.08;;;13.10;99.90;;;;;;5032407;28;20527;-42
2023/11/14 04:55:34;;;;;;;23.38;3.00;;;13.10;99.90;;;;;;5032648;28;20032;-39
2023/11/14 04:58:00;;;;;;;23.02;3.13;;;13.10;99.90;;;;;;5032313;28;20025;-41
2023/11/14 05:00:26;;;;;;;25.35;3.90;;;13.10;99.90;;;;;;5032549;28;20386;-45
2023/11/14 05:02:51;;;;;;;26.85;4.03;;;13.10;99.90;;;;;;5032331;28;20458;-45
2023/11/14 05:05:18;;;;;;;24.02;4.95;;;13.10;99.90;;;;;;5032934;28;20024;-57
2023/11/14 05:07:44;;;;;;;41.40;3.97;;;13.10;99.90;;;;;;5032496;28;20032;-55
2023/11/14 05:10:10;;;;;;;22.13;3.22;;;13.10;99.90;;;;;;5032230;28;20025;-55
2023/11/14 05:12:36;;;;;;;23.05;3.65;;;13.10;99.90;;;;;;5032556;28;20482;-54
2023/11/14 05:15:02;;;;;;;24.75;3.08;;;13.10;99.90;;;;;;5034887;28;20087;-42
2023/11/14 05:17:28;;;;;;;29.27;3.90;;;13.20;99.90;;;;;;5036151;28;20521;-47
2023/11/14 05:19:57;;;;;;;14.75;2.42;;;13.20;99.90;;;;;;5036263;28;20017;-48
2023/11/14 05:22:22;;;;;;;26.52;5.53;;;13.20;99.90;;;;;;5036055;28;20022;-41
2023/11/14 05:24:48;;;;;;;21.50;4.13;;;13.20;99.90;;;;;;5036546;28;20026;-39
2023/11/14 05:27:14;;;;;;;27.27;3.78;;;13.20;99.90;;;;;;5036005;28;20025;-42
2023/11/14 05:29:39;;;;;;;31.00;3.33;;;13.20;99.90;;;;;;5036236;28;20484;-42
2023/11/14 05:32:05;;;;;;;22.38;4.40;;;13.10;99.90;;;;;;5036267;28;20030;-41
2023/11/14 05:34:31;;;;;;;26.83;3.38;;;13.20;99.90;;;;;;5035911;28;20033;-51
2023/11/14 05:36:56;;;;;;;38.13;4.45;;;13.10;99.90;;;;;;5036138;28;20071;-38
2023/11/14 05:39:22;;;;;;;35.65;3.75;;;13.20;99.90;;;;;;5034528;28;20049;-38
2023/11/14 05:41:48;;;;;;;38.20;4.63;;;13.20;99.90;;;;;;5036200;28;20141;-39
2023/11/14 05:44:14;;;;;;;28.85;3.78;;;13.20;99.90;;;;;;5035428;28;20460;-42
2023/11/14 05:46:40;;;;;;;25.80;3.50;;;13.10;99.90;;;;;;5036286;28;20021;-39
2023/11/14 05:49:06;;;;;;;31.67;4.70;;;13.10;99.90;;;;;;5035818;28;20373;-45
2023/11/14 05:51:50;;;;;;;26.38;3.63;;;13.10;99.90;;;;;;5035922;28;20083;-41
2023/11/14 05:54:16;;;;;;;29.90;4.38;;;13.10;99.90;;;;;;5035663;28;20076;-39
2023/11/14 05:56:42;;;;;;;25.00;4.57;;;13.10;99.90;;;;;;5035863;28;20057;-45
2023/11/14 05:59:09;;;;;;;23.02;5.43;;;13.10;99.90;;;;;;5035559;28;20029;-43
2023/11/14 06:01:35;;;;;;;38.83;5.15;;;13.10;99.90;;;;;;5036072;28;20029;-43
2023/11/14 06:04:00;;;;;;;26.17;2.63;;;13.10;99.90;;;;;;5034842;28;20542;-44
2023/11/14 06:06:27;;;;;;;20.13;3.47;;;13.10;99.90;;;;;;5035541;28;20097;-42
2023/11/14 06:08:53;;;;;;;28.67;3.30;;;13.10;99.90;;;;;;5035301;28;20079;-40
2023/11/14 06:11:18;;;;;;;29.35;3.35;;;13.10;99.90;;;;;;5035565;28;20029;-41
2023/11/14 06:13:45;;;;;;;25.42;3.53;;;13.00;99.90;;;;;;5035738;28;20025;-43
2023/11/14 06:16:11;;;;;;;28.40;3.42;;;13.10;99.90;;;;;;5033975;28;20056;-38
2023/11/14 06:18:36;;;;;;;27.52;3.45;;;13.10;99.90;;;;;;5035047;28;20037;-42
2023/11/14 06:21:02;;;;;;;27.67;3.97;;;13.10;99.90;;;;;;5035271;28;20119;-39
2023/11/14 06:23:28;;;;;;;30.05;3.95;;;13.20;99.90;;;;;;5035284;28;20605;-40
2023/11/14 06:25:56;;;;;;;31.83;4.40;;;13.10;99.90;;;;;;5034250;28;20393;-40
2023/11/14 06:28:21;;;;;;;22.90;3.13;;;13.10;99.90;;;;;;5035157;28;20032;-42
2023/11/14 06:30:47;;;;;;;27.25;2.80;;;13.20;99.90;;;;;;5035436;28;20053;-44
2023/11/14 06:33:13;;;;;;;31.30;3.55;;;13.20;99.90;;;;;;5034668;28;20080;-40
2023/11/14 06:35:40;;;;;;;18.48;4.00;;;13.20;99.90;;;;;;5034655;28;20112;-41
2023/11/14 06:38:06;;;;;;;28.30;3.85;;;13.30;99.90;;;;;;5034992;28;20029;-40
2023/11/14 06:40:31;;;;;;;27.30;4.47;;;13.20;99.90;;;;;;5034737;28;20053;-42
2023/11/14 06:42:57;;;;;;;42.88;5.78;;;13.20;99.90;;;;;;5034911;28;20025;-41
2023/11/14 06:45:23;;;;;;;34.28;3.85;;;13.20;99.90;;;;;;5034654;28;20520;-40
2023/11/14 06:47:49;;;;;;;33.88;4.13;;;13.20;99.90;;;;;;5034709;28;20025;-41
2023/11/14 06:50:14;;;;;;;41.45;4.82;;;13.20;99.90;;;;;;5034925;28;20021;-41
2023/11/14 06:52:40;;;;;;;24.00;3.65;;;13.10;99.90;;;;;;5033447;28;20032;-41
2023/11/14 06:55:06;;;;;;;19.15;2.65;;;13.10;99.90;;;;;;5034310;28;20108;-45
2023/11/14 06:57:32;;;;;;;27.38;5.10;;;13.20;99.90;;;;;;5033594;28;20026;-41
2023/11/14 06:59:59;;;;;;;19.65;3.65;;;13.20;99.90;;;;;;5034580;28;20477;-41
2023/11/14 07:02:25;;;;;;;20.52;3.10;;;13.20;99.90;;;;;;5034493;28;20044;-45
2023/11/14 07:04:51;;;;;;;33.03;4.60;;;13.10;99.90;;;;;;5034796;28;20089;-43
2023/11/14 07:07:16;;;;;;;19.73;3.95;;;13.10;99.90;;;;;;5034399;28;20105;-41
2023/11/14 07:09:43;;;;;;;27.00;3.92;;;13.10;99.90;;;;;;5034455;28;20475;-39
2023/11/14 07:12:10;;;;;;;16.80;2.87;;;13.10;99.90;;;;;;5034341;28;20492;-41
2023/11/14 07:14:36;;;;;;;32.72;5.35;;;13.00;99.90;;;;;;5034332;28;20021;-43
2023/11/14 07:17:01;;;;;;;29.13;3.88;;;13.00;99.90;;;;;;5034258;28;20079;-42
2023/11/14 07:19:27;;;;;;;32.15;3.90;;;13.10;99.90;;;;;;5034127;28;20057;-43
2023/11/14 07:21:53;;;;;;;29.80;3.85;;;13.10;99.90;;;;;;5034199;28;20386;-39
2023/11/14 07:24:19;;;;;;;26.92;3.00;;;13.10;99.90;;;;;;5033656;28;20017;-40
2023/11/14 07:26:44;;;;;;;16.85;3.20;;;13.10;99.90;;;;;;5032949;28;20075;-44
2023/11/14 07:29:12;;;;;;;30.05;4.95;;;13.00;99.90;;;;;;5034059;28;20022;-39
2023/11/14 07:31:38;;;;;;;31.10;4.05;;;13.00;99.90;;;;;;5034144;28;20021;-47
2023/11/14 07:34:04;;;;;;;22.05;3.25;;;13.00;99.90;;;;;;5031989;28;20033;-46
2023/11/14 07:36:30;;;;;;;32.50;4.47;;;13.00;99.90;;;;;;5033791;28;20043;-40
2023/11/14 07:38:55;;;;;;;20.63;2.55;;;13.00;99.90;;;;;;5033079;28;20419;-42
2023/11/14 07:41:22;;;;;;;22.60;3.40;;;13.00;99.90;;;;;;5033591;28;20132;-45
2023/11/14 07:43:49;;;;;;;28.30;4.32;;;13.10;99.90;;;;;;5033767;28;20061;-47
2023/11/14 07:46:15;;;;;;;17.15;2.83;;;13.10;99.90;;;;;;5033772;28;20021;-39
2023/11/14 07:48:41;;;;;;;22.40;4.25;;;13.20;99.90;;;;;;5033302;28;20473;-48
2023/11/14 07:51:07;;;;;;;29.98;3.95;;;13.20;99.90;;;;;;5033667;28;20079;-42
2023/11/14 07:53:32;;;;;;;18.63;3.53;;;13.20;99.90;;;;;;5033536;28;20037;-41
2023/11/14 07:56:00;;;;;;;31.25;3.45;;;13.20;99.90;;;;;;5033737;28;20038;-42
2023/11/14 07:58:26;;;;;;;16.05;3.08;;;13.20;99.90;;;;;;5033120;28;20035;-41
2023/11/14 08:00:52;;;;;;;28.80;4.18;;;13.20;99.90;;;;;;5033723;28;20094;-39
2023/11/14 08:03:18;;;;;;;26.95;3.58;;;13.10;99.90;;;;;;5030729;28;20087;-44
2023/11/14 08:05:45;;;;;;;32.00;3.88;;;13.00;99.90;;;;;;5033291;28;20394;-46
2023/11/14 08:08:11;;;;;;;29.33;5.80;;;13.10;99.90;;;;;;5033448;28;20021;-41
2023/11/14 08:10:37;;;;;;;41.13;4.65;;;13.20;99.90;;;;;;5033105;28;20055;-41
2023/11/14 08:13:03;;;;;;;33.00;5.07;;;13.20;99.90;;;;;;5033017;28;20640;-39
2023/11/14 08:15:29;;;;;;;26.42;3.40;;;13.20;99.90;;;;;;5033211;28;20528;-42
2023/11/14 08:17:55;;;;;;;25.77;3.47;;;13.20;99.90;;;;;;5033231;28;20030;-42
2023/11/14 08:20:21;;;;;;;26.90;3.10;;;13.20;99.90;;;;;;5033375;28;20102;-39
2023/11/14 08:22:48;;;;;;;17.05;3.70;;;13.20;99.90;;;;;;5033018;28;20033;-41
2023/11/14 08:25:13;;;;;;;28.33;3.40;;;13.20;99.90;;;;;;5033089;28;20457;-44
2023/11/14 08:27:42;;;;;;;34.13;2.60;;;13.20;99.90;;;;;;5032910;28;20053;-43
2023/11/14 08:30:09;;;;;;;25.52;3.05;;;13.20;99.90;;;;;;5031352;28;20033;-39
2023/11/14 08:32:35;;;;;;;22.02;4.00;;;13.20;99.90;;;;;;5032954;28;20345;-39
2023/11/14 08:35:03;;;;;;;41.28;4.18;;;13.20;99.90;;;;;;5032897;28;20040;-43
2023/11/14 08:37:30;;;;;;;31.92;4.90;;;13.10;99.90;;;;;;5032864;28;20043;-43
2023/11/14 08:39:56;;;;;;;34.20;4.22;;;13.10;99.90;;;;;;5033435;28;20073;-38
2023/11/14 08:42:22;;;;;;;26.52;3.78;;;13.20;99.90;;;;;;5032492;28;20061;-40
2023/11/14 08:44:47;;;;;;;35.28;4.25;;;13.20;99.90;;;;;;5032701;28;20441;-41
2023/11/14 08:47:13;;;;;;;25.08;3.42;;;13.20;99.90;;;;;;5032274;28;20029;-41
2023/11/14 08:49:40;;;;;;;37.53;4.43;;;13.40;99.90;;;;;;5031791;28;20061;-44
2023/11/14 08:52:06;;;;;;;31.77;3.55;;;13.40;99.90;;;;;;5033033;28;20490;-42
2023/11/14 08:54:32;;;;;;;28.13;3.60;;;13.50;99.90;;;;;;5032088;28;20037;-41
2023/11/14 08:56:58;;;;;;;26.55;2.95;;;13.60;99.90;;;;;;5032417;28;20033;-40
2023/11/14 08:59:23;;;;;;;30.52;4.80;;;13.60;99.90;;;;;;5064160;28;20456;-41
2023/11/14 09:01:49;;;;;;;31.92;3.72;;;13.70;99.90;;;;;;5032126;28;20044;-43
2023/11/14 09:04:15;;;;;;;27.02;3.63;;;13.70;99.90;;;;;;5032519;28;20390;-37
2023/11/14 09:06:40;;;;;;;20.20;3.47;;;13.70;99.90;;;;;;5032557;28;20385;-40
2023/11/14 09:09:07;;;;;;;26.35;3.75;;;13.70;99.90;;;;;;5032216;28;20486;-42
2023/11/14 09:11:33;;;;;;;24.13;4.57;;;13.70;99.90;;;;;;5031023;28;20054;-44
2023/11/14 09:13:59;;;;;;;21.52;3.88;;;13.70;99.90;;;;;;5031467;28;20068;-42
2023/11/14 09:16:25;;;;;;;22.00;2.80;;;13.70;99.90;;;;;;5032247;28;20498;-42
2023/11/14 09:18:53;;;;;;;20.58;3.53;;;13.60;99.90;;;;;;5032714;28;20029;-53
2023/11/14 09:21:19;;;;;;;28.33;4.03;;;13.60;99.90;;;;;;5032104;28;20033;-55
2023/11/14 09:23:45;;;;;;;21.05;3.22;;;13.60;99.90;;;;;;5032410;28;20504;-42
2023/11/14 09:26:11;;;;;;;22.33;3.55;;;13.60;99.90;;;;;;5032244;28;20486;-43
2023/11/14 09:28:37;;;;;;;24.27;3.90;;;13.70;99.90;;;;;;5032372;28;20087;-41
2023/11/14 09:31:04;;;;;;;21.25;3.97;;;13.80;99.90;;;;;;5031231;28;20038;-41
2023/11/14 09:33:32;;;;;;;30.55;4.15;;;13.80;99.90;;;;;;5032433;28;20040;-41
2023/11/14 09:35:58;;;;;;;30.25;5.15;;;13.80;99.90;;;;;;5032645;28;20026;-41
2023/11/14 09:38:23;;;;;;;21.45;3.65;;;13.80;99.90;;;;;;5032244;28;20573;-39
2023/11/14 09:43:34;;;;;;;26.52;5.13;;;13.70;99.90;;;;;;5032572;28;20080;-39
2023/11/14 09:46:01;;;;;;;14.90;2.55;;;13.70;99.90;;;;;;5032313;28;20026;-40
2023/11/14 09:48:26;;;;;;;19.08;2.97;;;13.80;99.90;;;;;;5032465;28;20076;-40
2023/11/14 09:50:55;;;;;;;19.88;3.83;;;14.00;99.90;;;;;;5032507;28;20421;-43
2023/11/14 09:53:27;;;;;;;24.65;2.85;;;14.20;99.90;;;;;;5032216;28;20041;-43
2023/11/14 09:55:53;;;;;;;18.92;3.13;;;14.20;99.90;;;;;;5032279;28;20505;-45
2023/11/14 09:58:22;;;;;;;19.98;3.33;;;14.30;99.90;;;;;;5032266;28;20034;-40
2023/11/14 10:00:49;;;;;;;22.13;2.50;;;14.30;99.90;;;;;;5033274;28;20040;-40
2023/11/14 10:03:16;;;;;;;25.45;4.10;;;14.20;99.90;;;;;;5036037;28;20026;-40
2023/11/14 10:05:41;;;;;;;23.65;3.45;;;14.20;99.90;;;;;;5036047;28;20529;-43
2023/11/14 10:08:11;;;;;;;13.35;2.53;;;14.30;99.90;;;;;;5035714;28;20049;-43
2023/11/14 10:10:56;;;;;;;22.25;4.05;;;14.20;99.90;;;;;;5035678;28;20034;-43
2023/11/14 10:13:21;;;;;;;18.67;3.63;;;14.20;99.90;;;;;;5035780;28;20530;-44
2023/11/14 10:15:47;;;;;;;32.28;4.13;;;14.20;99.90;;;;;;5035578;28;20111;-42
2023/11/14 10:18:29;;;;;;;21.20;3.40;;;14.20;99.90;;;;;;5035471;28;20033;-42
2023/11/14 10:20:55;;;;;;;21.60;3.22;;;14.30;99.90;;;;;;5035712;28;20474;-46
2023/11/14 10:23:33;;;;;;;22.50;2.85;;;14.20;99.90;;;;;;5035454;28;20022;-41
2023/11/14 10:26:08;;;;;;;21.95;2.85;;;14.40;99.90;;;;;;5035419;28;20030;-45
2023/11/14 10:28:35;;;;;;;28.42;3.70;;;14.40;99.90;;;;;;5035307;28;20022;-40
2023/11/14 10:31:01;;;;;;;26.00;4.72;;;14.40;99.90;;;;;;5035070;28;20036;-41
2023/11/14 10:33:38;;;;;;;19.60;2.78;;;14.40;99.90;;;;;;5035224;28;20033;-41
2023/11/14 10:36:08;;;;;;;20.00;3.05;;;14.40;99.90;;;;;;5034257;28;20048;-38
2023/11/14 10:38:34;;;;;;;21.95;3.58;;;14.50;99.90;;;;;;5035372;28;20447;-41
2023/11/14 10:41:00;;;;;;;17.38;2.60;;;14.50;99.90;;;;;;5033033;28;20095;-42
2023/11/14 10:43:31;;;;;;;26.50;4.03;;;14.60;99.90;;;;;;5034924;28;20030;-42
2023/11/14 10:46:01;;;;;;;22.15;3.28;;;14.60;99.90;;;;;;5030887;28;20505;-40
2023/11/14 10:48:26;;;;;;;39.42;5.25;;;14.60;99.90;;;;;;5034779;28;20504;-40
2023/11/14 10:50:53;;;;;;;23.23;4.60;;;14.60;99.90;;;;;;5033563;28;20021;-41
2023/11/14 10:53:19;;;;;;;25.13;3.20;;;14.70;99.90;;;;;;5034861;28;20033;-41
2023/11/14 10:55:47;;;;;;;31.08;4.05;;;14.80;99.90;;;;;;5034893;28;20490;-41
2023/11/14 10:58:13;;;;;;;30.58;3.78;;;14.80;99.90;;;;;;5034774;28;20397;-41
2023/11/14 11:00:40;;;;;;;28.00;3.55;;;14.80;99.90;;;;;;5034707;28;20033;-44
2023/11/14 11:03:07;;;;;;;27.15;3.85;;;14.80;99.90;;;;;;5023066;28;20391;-41
2023/11/14 11:05:33;;;;;;;26.73;3.22;;;14.70;99.90;;;;;;5034336;28;20018;-42
2023/11/14 11:08:02;;;;;;;22.42;4.07;;;14.70;99.90;;;;;;5034179;28;20083;-42
2023/11/14 11:10:30;;;;;;;26.42;4.03;;;14.60;99.90;;;;;;5034337;28;20120;-44
2023/11/14 11:12:58;;;;;;;37.97;4.80;;;14.60;99.90;;;;;;5034020;28;20037;-43
2023/11/14 11:15:23;;;;;;;30.70;5.13;;;14.50;99.90;;;;;;5033975;28;20048;-43
2023/11/14 11:17:58;;;;;;;22.65;4.07;;;14.50;99.90;;;;;;5034164;28;20033;-47
2023/11/14 11:20:26;;;;;;;24.73;3.13;;;14.60;99.90;;;;;;5032541;28;20069;-47
2023/11/14 11:23:10;;;;;;;32.65;5.25;;;14.60;99.90;;;;;;5033671;28;20021;-46
2023/11/14 11:25:37;;;;;;;20.88;4.75;;;14.60;99.90;;;;;;5033636;28;20557;-44
2023/11/14 11:28:21;;;;;;;35.33;5.20;;;14.60;99.90;;;;;;5034190;28;20481;-49
2023/11/14 11:31:04;;;;;;;34.38;4.93;;;14.50;99.90;;;;;;5034073;28;20033;-47
2023/11/14 11:33:42;;;;;;;31.00;3.88;;;14.50;99.90;;;;;;5033729;28;20520;-44
2023/11/14 11:36:25;;;;;;;26.65;3.88;;;14.50;99.90;;;;;;5033899;28;20071;-41
2023/11/14 11:38:58;;;;;;;34.55;5.47;;;14.50;99.90;;;;;;5033592;28;20063;-45
2023/11/14 11:41:25;;;;;;;30.42;4.88;;;14.50;99.90;;;;;;5033281;28;20040;-39
2023/11/14 11:44:04;;;;;;;23.08;3.22;;;14.50;99.90;;;;;;5033673;28;20497;-42
2023/11/14 11:46:36;;;;;;;20.55;3.80;;;14.50;99.90;;;;;;5033701;28;20013;-46
2023/11/14 11:49:12;;;;;;;29.88;4.28;;;14.50;99.90;;;;;;5033660;28;20044;-39
2023/11/14 11:51:46;;;;;;;24.60;4.07;;;14.60;99.90;;;;;;5033670;28;20048;-44
2023/11/14 11:54:27;;;;;;;32.85;4.88;;;14.60;99.90;;;;;;5032982;28;20390;-48
2023/11/14 11:57:06;;;;;;;16.05;3.22;;;14.70;99.90;;;;;;5032311;28;20034;-42
2023/11/14 11:59:40;;;;;;;34.95;5.25;;;14.60;99.90;;;;;;5033469;28;20069;-40
2023/11/14 12:02:14;;;;;;;16.95;3.58;;;14.60;99.90;;;;;;5033201;28;20025;-44
2023/11/14 12:04:42;;;;;;;30.85;3.13;;;14.70;99.90;;;;;;5033312;28;20090;-40
2023/11/14 12:07:08;;;;;;;19.42;3.72;;;14.60;99.90;;;;;;5033396;28;20163;-45
2023/11/14 12:09:36;;;;;;;37.20;4.65;;;14.60;99.90;;;;;;5033034;28;20040;-43
2023/11/14 12:12:02;;;;;;;37.22;4.03;;;14.60;99.90;;;;;;5033486;28;20028;-44
2023/11/14 12:14:28;;;;;;;22.80;4.90;;;14.60;99.90;;;;;;5033329;28;20373;-41
2023/11/14 12:16:55;;;;;;;25.33;3.85;;;14.60;99.90;;;;;;5033197;28;20112;-40
2023/11/14 12:19:21;;;;;;;27.27;3.95;;;14.60;99.90;;;;;;5032866;28;20033;-43
2023/11/14 12:21:46;;;;;;;32.38;3.63;;;14.60;99.90;;;;;;5033145;28;20466;-41
2023/11/14 12:24:13;;;;;;;20.67;4.15;;;14.60;99.90;;;;;;5030788;28;20470;-40
2023/11/14 12:26:39;;;;;;;29.60;4.00;;;14.60;99.90;;;;;;5033054;28;20026;-41
2023/11/14 12:29:09;;;;;;;30.35;4.53;;;14.60;99.90;;;;;;5032719;28;20056;-40
2023/11/14 12:31:55;;;;;;;35.00;4.78;;;14.60;99.90;;;;;;5032487;28;20500;-40
2023/11/14 12:34:29;;;;;;;22.38;3.72;;;14.60;99.90;;;;;;5033352;28;20421;-44
2023/11/14 12:37:16;;;;;;;30.13;3.55;;;14.50;99.90;;;;;;5033306;28;20030;-45